Time;durP1;ratioP1;P1;durP2;ratioP2;P2;SDS_P1;SDS_P2;PMS_P1;PMS_P2;Temp;Humidity;BMP_temperature;BMP_pressure;BME280_temperature;BME280_humidity;BME280_pressure;Samples;Min_cycle;Max_cycle;Signal;HPM_P1;HPM_P2
2023/03/05 00:00:15;;;;;;;3.33;3.02;;;;;;;19.75;31.24;99287.75;1846967;77;28292;-54
2023/03/05 00:03:03;;;;;;;3.17;2.98;;;;;;;19.75;31.21;99286.38;1812100;78;28163;-56
2023/03/05 00:05:55;;;;;;;3.00;2.70;;;;;;;19.73;31.29;99289.86;1780364;80;28434;-56
2023/03/05 00:08:44;;;;;;;2.95;2.75;;;;;;;19.73;31.27;99289.86;1803267;78;28171;-56
2023/03/05 00:11:33;;;;;;;2.95;2.65;;;;;;;19.73;31.28;99288.50;1790341;79;28386;-57
2023/03/05 00:14:21;;;;;;;3.37;3.07;;;;;;;19.74;31.27;99286.62;1790314;79;28853;-58
2023/03/05 00:17:09;;;;;;;2.83;2.62;;;;;;;19.74;31.25;99290.16;1793891;79;28328;-57
2023/03/05 00:19:59;;;;;;;3.20;2.80;;;;;;;19.72;31.25;99284.09;1773726;79;28238;-57
2023/03/05 00:22:47;;;;;;;4.00;2.95;;;;;;;19.77;31.27;99288.36;1804212;79;28314;-53
2023/03/05 00:25:36;;;;;;;2.98;2.70;;;;;;;19.75;31.24;99288.27;1800067;79;28327;-58
2023/03/05 00:28:24;;;;;;;4.28;2.77;;;;;;;19.75;31.24;99286.38;1794865;79;28319;-55
2023/03/05 00:31:14;;;;;;;3.02;2.83;;;;;;;19.76;31.26;99289.95;1789878;79;28368;-56
2023/03/05 00:34:08;;;;;;;3.40;2.73;;;;;;;19.73;31.24;99293.11;1789984;79;28759;-52
2023/03/05 00:36:56;;;;;;;3.30;2.85;;;;;;;19.69;31.22;99283.72;1809564;79;28343;-56
2023/03/05 00:39:45;;;;;;;3.13;2.83;;;;;;;19.73;31.28;99293.95;1795844;79;28337;-57
2023/03/05 00:42:37;;;;;;;2.72;2.52;;;;;;;19.73;31.30;99294.47;1799940;79;28375;-57
2023/03/05 00:45:22;;;;;;;2.77;2.58;;;;;;;19.72;31.30;99293.63;1784429;79;28421;-56
2023/03/05 00:48:11;;;;;;;3.20;2.92;;;;;;;19.73;31.27;99293.11;1822345;78;28210;-56
2023/03/05 00:50:59;;;;;;;3.10;2.90;;;;;;;19.75;31.29;99303.26;1766251;80;28394;-54
2023/03/05 00:53:48;;;;;;;2.80;2.60;;;;;;;19.74;31.26;99301.05;1785281;79;28477;-56
2023/03/05 00:56:36;;;;;;;2.80;2.60;;;;;;;19.73;31.27;99298.04;1784715;79;28324;-55
2023/03/05 00:59:25;;;;;;;3.10;2.80;;;;;;;19.72;31.31;99293.63;1781802;79;28280;-56
2023/03/05 01:02:14;;;;;;;3.13;2.90;;;;;;;19.70;31.34;99305.80;1765807;80;28454;-59
2023/03/05 01:05:02;;;;;;;2.75;2.55;;;;;;;19.72;31.31;99308.62;1773608;79;28203;-56
2023/03/05 01:07:55;;;;;;;3.17;2.87;;;;;;;19.74;31.26;99301.05;1777811;79;28480;-56
2023/03/05 01:10:45;;;;;;;3.22;2.92;;;;;;;19.71;31.29;99302.88;1777369;79;28234;-56
2023/03/05 01:13:34;;;;;;;2.70;2.50;;;;;;;19.73;31.32;99304.02;1788704;79;28407;-55
2023/03/05 01:16:22;;;;;;;2.85;2.65;;;;;;;19.73;31.30;99299.41;1832783;76;28306;-53
2023/03/05 01:19:12;;;;;;;3.15;2.90;;;;;;;19.73;31.32;99298.56;1857740;75;28239;-55
2023/03/05 01:22:01;;;;;;;2.70;2.50;;;;;;;19.76;31.28;99296.77;1868789;76;28158;-57
2023/03/05 01:24:49;;;;;;;3.10;2.80;;;;;;;19.75;31.24;99296.44;1858940;76;28223;-56
2023/03/05 01:27:38;;;;;;;3.00;2.67;;;;;;;19.73;31.26;99288.50;1858736;76;28224;-53
2023/03/05 01:30:26;;;;;;;2.83;2.60;;;;;;;19.72;31.27;99287.38;1856891;76;28161;-55
2023/03/05 01:33:15;;;;;;;2.80;2.60;;;;;;;19.73;31.28;99291.23;1851271;76;28203;-53
2023/03/05 01:36:13;;;;;;;3.27;2.80;;;;;;;19.72;31.31;99290.09;1847570;76;28154;-54
2023/03/05 01:39:01;;;;;;;3.13;2.83;;;;;;;19.72;31.27;99286.81;1847727;76;28244;-55
2023/03/05 01:41:50;;;;;;;3.20;2.90;;;;;;;19.75;31.25;99282.30;1849144;76;28228;-55
2023/03/05 01:44:38;;;;;;;2.90;2.67;;;;;;;19.74;31.28;99279.80;1851741;76;28175;-57
2023/03/05 01:47:27;;;;;;;3.58;2.67;;;;;;;19.73;31.27;99281.69;1847698;76;28154;-55
2023/03/05 01:50:18;;;;;;;3.50;2.80;;;;;;;19.73;31.27;99275.40;1847689;76;28237;-54
2023/03/05 01:53:08;;;;;;;4.37;2.85;;;;;;;19.74;31.26;99274.36;1868759;76;28155;-53
2023/03/05 01:55:56;;;;;;;2.80;2.60;;;;;;;19.76;31.27;99272.23;1851157;76;28566;-57
2023/03/05 01:58:45;;;;;;;2.80;2.60;;;;;;;19.75;31.25;99270.55;1848010;76;28117;-54
2023/03/05 02:01:40;;;;;;;2.55;2.45;;;;;;;19.75;31.24;99256.41;1847629;76;28281;-57
2023/03/05 02:04:34;;;;;;;2.90;2.70;;;;;;;19.75;31.24;99258.30;1849942;76;28342;-55
2023/03/05 02:07:23;;;;;;;2.85;2.65;;;;;;;19.72;31.30;99256.03;1816708;78;28191;-57
2023/03/05 02:10:21;;;;;;;2.83;2.63;;;;;;;19.72;31.29;99256.03;1847950;76;28109;-56
2023/03/05 02:13:15;;;;;;;2.80;2.60;;;;;;;19.73;31.29;99252.23;1847672;76;28109;-52
2023/03/05 02:16:04;;;;;;;2.67;2.47;;;;;;;19.73;31.27;99250.88;1868270;76;28154;-59
2023/03/05 02:18:53;;;;;;;3.20;2.70;;;;;;;19.75;31.24;99246.03;1853528;76;28179;-56
2023/03/05 02:21:44;;;;;;;2.90;2.70;;;;;;;19.76;31.22;99247.71;1855631;76;28214;-59
2023/03/05 02:24:36;;;;;;;3.07;2.77;;;;;;;19.73;31.22;99247.63;1856695;76;28153;-56
2023/03/05 02:27:33;;;;;;;2.80;2.60;;;;;;;19.73;31.23;99244.90;1857491;76;28210;-57
2023/03/05 02:30:18;;;;;;;2.37;2.27;;;;;;;19.73;31.26;99244.05;1862550;76;28245;-56
2023/03/05 02:33:07;;;;;;;2.40;2.27;;;;;;;19.72;31.23;99243.77;1857360;76;28121;-56
2023/03/05 02:35:55;;;;;;;3.12;2.75;;;;;;;19.72;31.24;99242.41;1857177;76;28123;-55
2023/03/05 02:38:45;;;;;;;3.37;2.57;;;;;;;19.72;31.23;99239.13;1878348;76;28114;-55
2023/03/05 02:41:33;;;;;;;3.20;2.90;;;;;;;19.71;31.23;99239.36;1862276;76;28222;-51
2023/03/05 02:44:22;;;;;;;2.95;2.52;;;;;;;19.71;31.28;99240.72;1856432;76;28157;-56
2023/03/05 02:47:10;;;;;;;3.10;2.90;;;;;;;19.72;31.27;99243.22;1856688;76;28297;-53
2023/03/05 02:49:59;;;;;;;2.67;2.47;;;;;;;19.72;31.27;99237.77;1878171;74;28156;-56
2023/03/05 02:52:47;;;;;;;3.65;2.70;;;;;;;19.74;31.21;99237.02;1878234;76;28117;-52
2023/03/05 02:55:38;;;;;;;2.60;2.40;;;;;;;19.76;31.21;99234.09;1872672;76;28283;-55
2023/03/05 02:58:26;;;;;;;3.10;2.50;;;;;;;19.73;31.24;99234.52;1874972;76;28233;-55
2023/03/05 03:01:14;;;;;;;2.73;2.53;;;;;;;19.74;31.23;99230.20;1877610;76;28172;-53
2023/03/05 03:04:02;;;;;;;2.65;2.45;;;;;;;19.71;31.23;99229.30;1863866;76;28187;-56
2023/03/05 03:06:51;;;;;;;3.10;2.65;;;;;;;19.72;31.22;99228.78;1876197;76;28163;-51
2023/03/05 03:09:41;;;;;;;3.12;2.72;;;;;;;19.73;31.21;99228.55;1856817;76;28268;-54
2023/03/05 03:12:29;;;;;;;3.23;2.80;;;;;;;19.73;31.20;99223.09;1859590;76;28177;-54
2023/03/05 03:15:18;;;;;;;2.80;2.60;;;;;;;19.75;31.17;99222.34;1859197;76;28201;-56
2023/03/05 03:18:07;;;;;;;2.90;2.60;;;;;;;19.75;31.20;99221.50;1856579;76;28156;-55
2023/03/05 03:20:55;;;;;;;3.02;2.72;;;;;;;19.74;31.21;99222.58;1855953;76;28316;-55
2023/03/05 03:23:43;;;;;;;3.27;2.60;;;;;;;19.74;31.19;99225.30;1852280;76;28254;-55
2023/03/05 03:26:31;;;;;;;3.00;2.45;;;;;;;19.74;31.19;99219.30;1848825;76;28270;-54
2023/03/05 03:29:20;;;;;;;2.95;2.62;;;;;;;19.74;31.16;99220.66;1847945;76;28255;-54
2023/03/05 03:32:08;;;;;;;3.20;2.60;;;;;;;19.73;31.20;99215.45;1848212;76;28219;-57
2023/03/05 03:34:57;;;;;;;2.70;2.50;;;;;;;19.72;31.23;99219.24;1853112;76;28109;-56
2023/03/05 03:37:45;;;;;;;3.02;2.72;;;;;;;19.73;31.20;99223.63;1859464;76;28203;-54
2023/03/05 03:40:36;;;;;;;2.60;2.33;;;;;;;19.70;31.22;99221.33;1858237;76;28609;-57
2023/03/05 03:43:24;;;;;;;2.60;2.40;;;;;;;19.70;31.18;99221.33;1857507;76;28121;-57
2023/03/05 03:46:12;;;;;;;2.50;2.30;;;;;;;19.72;31.21;99232.87;1854381;76;28203;-54
2023/03/05 03:49:01;;;;;;;2.60;2.50;;;;;;;19.70;31.18;99225.41;1858763;76;28325;-55
2023/03/05 03:51:53;;;;;;;3.12;2.50;;;;;;;19.71;31.22;99225.73;1859874;76;28117;-56
2023/03/05 03:54:41;;;;;;;2.52;2.33;;;;;;;19.72;31.17;99221.41;1861920;76;28216;-55
2023/03/05 03:57:32;;;;;;;2.87;2.47;;;;;;;19.72;31.20;99220.61;1850247;76;28193;-55
2023/03/05 04:00:21;;;;;;;2.55;2.35;;;;;;;19.73;31.18;99220.89;1845478;76;28182;-51
2023/03/05 04:03:10;;;;;;;2.55;2.35;;;;;;;19.72;31.18;99216.52;1847544;76;28198;-56
2023/03/05 04:05:58;;;;;;;2.90;2.70;;;;;;;19.69;31.20;99217.80;1868985;76;28129;-55
2023/03/05 04:08:47;;;;;;;2.70;2.50;;;;;;;19.69;31.19;99215.59;1856834;76;28254;-56
2023/03/05 04:11:36;;;;;;;2.20;2.10;;;;;;;19.69;31.19;99220.52;1864611;76;28211;-55
2023/03/05 04:14:25;;;;;;;2.37;2.20;;;;;;;19.71;31.17;99217.04;1847676;76;28251;-55
2023/03/05 04:17:14;;;;;;;3.05;2.50;;;;;;;19.72;31.17;99217.88;1852303;76;28191;-57
2023/03/05 04:20:04;;;;;;;2.72;2.52;;;;;;;19.71;31.17;99219.77;1848271;76;28273;-57
2023/03/05 04:22:52;;;;;;;2.65;2.45;;;;;;;19.69;31.18;99215.07;1863650;76;28177;-58
2023/03/05 04:25:41;;;;;;;2.60;2.40;;;;;;;19.66;31.21;99219.59;1836913;77;28315;-58
2023/03/05 04:28:31;;;;;;;2.80;2.60;;;;;;;19.68;31.20;99215.27;1837305;77;28210;-55
2023/03/05 04:31:19;;;;;;;2.55;2.42;;;;;;;19.68;31.14;99209.30;1835283;77;28287;-55
2023/03/05 04:34:08;;;;;;;2.50;2.30;;;;;;;19.69;31.19;99206.05;1847745;76;28195;-53
2023/03/05 04:36:56;;;;;;;2.37;2.17;;;;;;;19.71;31.15;99203.41;1837792;77;32611;-56
2023/03/05 04:39:44;;;;;;;2.60;2.40;;;;;;;19.71;31.15;99206.66;1805066;78;28265;-57
2023/03/05 04:42:33;;;;;;;2.40;2.20;;;;;;;19.70;31.13;99198.17;1789842;79;28359;-55
2023/03/05 04:45:21;;;;;;;2.87;2.67;;;;;;;19.68;31.16;99192.11;1790071;79;28599;-54
2023/03/05 04:48:11;;;;;;;2.50;2.30;;;;;;;19.68;31.15;99197.04;1809675;79;28423;-55
2023/03/05 04:51:00;;;;;;;2.92;2.27;;;;;;;19.70;31.16;99197.64;1791742;79;28354;-54
2023/03/05 04:53:48;;;;;;;2.90;2.50;;;;;;;19.68;31.15;99197.56;1804214;79;28413;-54
2023/03/05 04:56:37;;;;;;;2.20;2.00;;;;;;;19.68;31.17;99199.77;1817747;78;28136;-56
2023/03/05 04:59:25;;;;;;;2.47;2.30;;;;;;;19.68;31.14;99191.59;1781650;79;28407;-54
2023/03/05 05:02:14;;;;;;;2.17;2.08;;;;;;;19.69;31.13;99195.16;1788638;79;28285;-53
2023/03/05 05:05:02;;;;;;;2.60;2.40;;;;;;;19.69;31.14;99188.34;1837919;76;28248;-54
2023/03/05 05:07:55;;;;;;;2.70;2.50;;;;;;;19.69;31.14;99192.43;1836605;77;28321;-57
2023/03/05 05:10:43;;;;;;;2.42;2.22;;;;;;;19.69;31.14;99191.91;1841809;77;28309;-56
2023/03/05 05:13:33;;;;;;;2.50;2.30;;;;;;;19.71;31.15;99195.77;1847048;77;28217;-57
2023/03/05 05:16:21;;;;;;;2.50;2.30;;;;;;;19.69;31.16;99187.82;1847063;77;28265;-54
2023/03/05 05:19:09;;;;;;;2.42;2.22;;;;;;;19.68;31.13;99186.66;1845869;77;34073;-52
2023/03/05 05:21:57;;;;;;;2.90;2.40;;;;;;;19.70;31.13;99189.99;1851451;76;28160;-57
2023/03/05 05:24:46;;;;;;;2.50;2.30;;;;;;;19.68;31.14;99192.95;1847814;76;28228;-56
2023/03/05 05:27:35;;;;;;;2.02;1.92;;;;;;;19.71;31.13;99194.40;1847778;76;28223;-53
2023/03/05 05:30:23;;;;;;;2.52;2.20;;;;;;;19.69;31.11;99193.27;1850499;76;28253;-54
2023/03/05 05:33:11;;;;;;;2.22;2.10;;;;;;;19.69;31.11;99197.88;1850275;76;28160;-53
2023/03/05 05:36:01;;;;;;;2.22;2.08;;;;;;;19.67;31.15;99201.36;1847642;76;28165;-55
2023/03/05 05:38:49;;;;;;;2.37;2.17;;;;;;;19.68;31.14;99204.38;1847828;76;28188;-56
2023/03/05 05:41:38;;;;;;;2.37;2.20;;;;;;;19.68;31.14;99197.56;1851764;76;28187;-57
2023/03/05 05:44:26;;;;;;;2.37;2.17;;;;;;;19.69;31.13;99202.81;1849236;76;28186;-52
2023/03/05 05:47:16;;;;;;;2.08;1.98;;;;;;;19.68;31.13;99198.41;1847840;76;28190;-55
2023/03/05 05:50:06;;;;;;;2.55;2.35;;;;;;;19.68;31.13;99197.04;1847573;76;28234;-50
2023/03/05 05:52:55;;;;;;;2.20;2.10;;;;;;;19.66;31.13;99201.88;1868642;76;28157;-53
2023/03/05 05:55:43;;;;;;;2.65;2.20;;;;;;;19.66;31.16;99200.52;1857824;76;28341;-59
2023/03/05 05:58:31;;;;;;;2.35;2.15;;;;;;;19.69;31.14;99204.69;1858398;76;28204;-55
2023/03/05 06:01:27;;;;;;;2.15;1.95;;;;;;;19.68;31.11;99205.73;1858009;76;28168;-54
2023/03/05 06:04:15;;;;;;;2.40;2.20;;;;;;;19.69;31.12;99203.33;1852018;76;28289;-56
2023/03/05 06:07:04;;;;;;;2.27;2.10;;;;;;;19.67;31.15;99206.29;1848975;76;28964;-56
2023/03/05 06:09:52;;;;;;;2.40;2.20;;;;;;;19.67;31.13;99194.55;1847497;76;28823;-56
2023/03/05 06:12:41;;;;;;;2.43;2.23;;;;;;;19.67;31.14;99198.11;1868967;76;28201;-56
2023/03/05 06:15:30;;;;;;;2.53;2.33;;;;;;;19.68;31.08;99205.73;1852984;76;28180;-53
2023/03/05 06:18:18;;;;;;;2.52;2.33;;;;;;;19.67;31.14;99206.81;1847527;76;28183;-56
2023/03/05 06:21:09;;;;;;;2.47;2.23;;;;;;;19.67;31.13;99200.00;1848271;76;28188;-55
2023/03/05 06:24:00;;;;;;;2.20;2.05;;;;;;;19.66;31.11;99211.94;1848537;76;28197;-53
2023/03/05 06:26:48;;;;;;;2.90;2.55;;;;;;;19.66;31.15;99211.94;1817860;78;28261;-55
2023/03/05 06:29:37;;;;;;;2.10;2.00;;;;;;;19.66;31.14;99217.39;1838257;76;28207;-58
2023/03/05 06:32:25;;;;;;;2.03;1.93;;;;;;;19.66;31.10;99221.48;1858906;76;28180;-58
2023/03/05 06:35:13;;;;;;;2.20;2.10;;;;;;;19.66;31.12;99224.20;1803549;79;28209;-55
2023/03/05 06:38:02;;;;;;;2.37;2.00;;;;;;;19.67;31.10;99223.16;1850920;76;28138;-56
2023/03/05 06:40:50;;;;;;;2.22;2.05;;;;;;;19.66;31.15;99223.68;1847613;76;28187;-53
2023/03/05 06:43:42;;;;;;;2.40;2.20;;;;;;;19.67;31.10;99223.16;1847570;76;28208;-55
2023/03/05 06:46:39;;;;;;;2.22;2.10;;;;;;;19.65;31.10;99221.19;1850689;76;28191;-58
2023/03/05 06:49:27;;;;;;;2.30;2.10;;;;;;;19.67;31.10;99217.19;1816921;77;28269;-56
2023/03/05 06:52:16;;;;;;;2.25;2.05;;;;;;;19.66;31.14;99217.39;1847622;76;28152;-57
2023/03/05 06:55:05;;;;;;;2.90;2.35;;;;;;;19.67;31.12;99225.88;1859202;76;28147;-55
2023/03/05 06:57:53;;;;;;;1.90;1.80;;;;;;;19.67;31.12;99223.16;1850560;76;28299;-57
2023/03/05 07:00:43;;;;;;;2.40;2.20;;;;;;;19.66;31.11;99223.68;1850232;76;28243;-56
2023/03/05 07:03:31;;;;;;;2.10;2.00;;;;;;;19.64;31.12;99222.23;1848070;76;28121;-59
2023/03/05 07:06:22;;;;;;;2.50;2.15;;;;;;;19.65;31.12;99223.36;1847837;76;28238;-54
2023/03/05 07:09:15;;;;;;;2.40;2.20;;;;;;;19.67;31.10;99224.52;1850952;76;28238;-55
2023/03/05 07:12:04;;;;;;;2.25;2.15;;;;;;;19.66;31.10;99216.87;1815716;78;28197;-55
2023/03/05 07:14:53;;;;;;;2.30;2.10;;;;;;;19.66;31.11;99210.05;1848186;76;28141;-57
2023/03/05 07:17:41;;;;;;;2.20;2.10;;;;;;;19.66;31.12;99214.66;1847735;76;28198;-56
2023/03/05 07:20:30;;;;;;;1.90;1.80;;;;;;;19.67;31.11;99212.26;1850722;76;28255;-56
2023/03/05 07:23:18;;;;;;;2.22;2.12;;;;;;;19.66;31.12;99214.66;1849576;76;28125;-56
2023/03/05 07:26:07;;;;;;;2.55;2.17;;;;;;;19.67;31.08;99206.81;1857463;76;36509;-56
2023/03/05 07:28:55;;;;;;;2.20;2.10;;;;;;;19.65;31.08;99200.20;1826528;77;28188;-55
2023/03/05 07:31:43;;;;;;;2.40;2.20;;;;;;;19.67;31.07;99206.81;1841282;77;28279;-58
2023/03/05 07:34:31;;;;;;;2.55;2.30;;;;;;;19.67;31.10;99201.36;1847099;77;28250;-58
2023/03/05 07:37:20;;;;;;;2.27;2.08;;;;;;;19.69;31.07;99196.52;1840482;76;28222;-56
2023/03/05 07:40:10;;;;;;;2.22;2.05;;;;;;;19.67;31.08;99198.11;1848920;76;28192;-54
2023/03/05 07:42:58;;;;;;;2.80;2.20;;;;;;;19.67;31.06;99199.48;1851919;76;28148;-60
2023/03/05 07:45:48;;;;;;;2.17;2.05;;;;;;;19.69;31.02;99199.24;1847916;76;28195;-60
2023/03/05 07:48:37;;;;;;;2.70;2.40;;;;;;;19.69;31.04;99198.72;1848236;76;32158;-55
2023/03/05 07:51:27;;;;;;;2.47;2.00;;;;;;;19.66;31.07;99201.04;1849287;76;28257;-58
2023/03/05 07:54:15;;;;;;;2.00;1.90;;;;;;;19.67;31.08;99206.81;1837240;77;28300;-56
2023/03/05 07:57:06;;;;;;;2.22;2.08;;;;;;;19.68;31.04;99211.19;1854140;77;28109;-56
2023/03/05 07:59:54;;;;;;;2.37;2.17;;;;;;;19.67;31.04;99206.29;1833425;77;28107;-58
2023/03/05 08:02:42;;;;;;;2.30;2.10;;;;;;;19.68;31.11;99201.65;1839404;77;28192;-56
2023/03/05 08:05:31;;;;;;;2.35;2.12;;;;;;;19.68;31.08;99200.28;1849988;76;28114;-57
2023/03/05 08:08:19;;;;;;;2.00;1.90;;;;;;;19.68;31.08;99198.92;1847278;76;28219;-60
2023/03/05 08:11:11;;;;;;;2.00;1.90;;;;;;;19.69;31.05;99196.00;1855743;77;28161;-54
2023/03/05 08:13:59;;;;;;;2.33;2.00;;;;;;;19.71;31.04;99197.12;1825987;78;28191;-57
2023/03/05 08:16:51;;;;;;;2.27;2.08;;;;;;;19.69;31.05;99191.06;1837041;77;28181;-58
2023/03/05 08:19:37;;;;;;;2.20;2.00;;;;;;;19.68;31.06;99192.95;1862617;76;28286;-62
2023/03/05 08:22:26;;;;;;;2.30;2.10;;;;;;;19.69;31.08;99191.06;1858106;76;28194;-58
2023/03/05 08:25:14;;;;;;;2.25;2.15;;;;;;;19.67;31.04;99188.58;1853577;76;28117;-58
2023/03/05 08:28:03;;;;;;;2.30;2.10;;;;;;;19.68;31.09;99182.58;1847869;76;28137;-59
2023/03/05 08:30:52;;;;;;;2.00;1.90;;;;;;;19.67;31.09;99178.20;1869021;76;28137;-58
2023/03/05 08:33:41;;;;;;;2.42;2.00;;;;;;;19.68;31.06;99174.40;1848356;76;28350;-57
2023/03/05 08:36:30;;;;;;;2.20;2.10;;;;;;;19.67;31.07;99171.39;1852396;76;28195;-57
2023/03/05 08:39:19;;;;;;;2.15;2.05;;;;;;;19.68;31.08;99172.52;1859872;76;28207;-58
2023/03/05 08:42:08;;;;;;;2.80;2.10;;;;;;;19.68;31.08;99169.79;1858309;76;28207;-57
2023/03/05 08:44:56;;;;;;;2.20;2.00;;;;;;;19.67;31.09;99166.78;1836272;77;28264;-57
2023/03/05 08:47:44;;;;;;;2.50;2.10;;;;;;;19.69;31.12;99162.45;1851205;76;28116;-54
2023/03/05 08:50:33;;;;;;;2.25;2.05;;;;;;;19.69;31.10;99152.40;1847783;76;28109;-54
2023/03/05 08:53:21;;;;;;;2.42;2.22;;;;;;;19.71;31.08;99153.52;1846830;76;28220;-55
2023/03/05 08:56:10;;;;;;;2.20;2.00;;;;;;;19.69;31.09;99151.55;1851585;76;28216;-59
2023/03/05 08:58:58;;;;;;;2.20;2.00;;;;;;;19.68;31.10;99146.63;1848380;76;28779;-57
2023/03/05 09:01:46;;;;;;;2.20;2.02;;;;;;;19.71;31.08;99146.19;1862254;76;28300;-54
2023/03/05 09:04:34;;;;;;;2.17;2.07;;;;;;;19.72;31.07;99147.03;1837623;77;28719;-56
2023/03/05 09:07:23;;;;;;;2.43;2.23;;;;;;;19.69;31.09;99146.11;1860180;76;28171;-55
2023/03/05 09:10:13;;;;;;;2.30;2.10;;;;;;;19.70;31.10;99149.12;1859208;76;28267;-55
2023/03/05 09:13:03;;;;;;;2.12;2.02;;;;;;;19.72;31.10;99144.31;1858840;76;38628;-54
2023/03/05 09:15:57;;;;;;;2.10;1.90;;;;;;;19.72;31.08;99145.11;1857373;76;28195;-51
2023/03/05 09:18:45;;;;;;;2.22;2.10;;;;;;;19.74;31.06;99147.08;1853529;76;28291;-53
2023/03/05 09:21:34;;;;;;;2.47;2.02;;;;;;;19.74;31.07;99147.64;1858338;76;28234;-56
2023/03/05 09:24:22;;;;;;;2.05;1.95;;;;;;;19.74;31.07;99147.64;1858235;76;28146;-55
2023/03/05 09:27:11;;;;;;;2.20;2.00;;;;;;;19.77;31.07;99143.08;1837322;77;28305;-56
2023/03/05 09:29:59;;;;;;;2.10;2.00;;;;;;;19.75;31.06;99145.20;1837794;77;28368;-57
2023/03/05 09:32:47;;;;;;;2.25;2.05;;;;;;;19.78;31.03;99140.67;1858686;76;28187;-55
2023/03/05 09:35:36;;;;;;;2.15;1.95;;;;;;;19.79;31.01;99142.35;1858700;76;28109;-54
2023/03/05 09:38:25;;;;;;;2.33;2.12;;;;;;;19.79;31.04;99132.81;1855411;76;28187;-55
2023/03/05 09:41:16;;;;;;;2.02;1.90;;;;;;;19.78;31.05;99128.41;1837655;77;28362;-57
2023/03/05 09:44:33;;;;;;;2.85;2.00;;;;;;;19.79;31.04;99130.89;1858190;76;28266;-54
2023/03/05 09:47:39;;;;;;;2.08;1.92;;;;;;;19.80;31.02;99123.56;1858179;76;28231;-56
2023/03/05 09:50:45;;;;;;;1.77;1.67;;;;;;;19.80;31.08;99120.84;1864241;76;28141;-59
2023/03/05 09:53:42;;;;;;;2.55;2.33;;;;;;;19.76;31.09;99119.63;1868373;76;28176;-55
2023/03/05 09:56:33;;;;;;;2.08;1.95;;;;;;;19.76;31.12;99109.56;1859408;76;28192;-59
2023/03/05 09:59:34;;;;;;;2.20;1.75;;;;;;;19.77;31.12;99097.59;1852828;76;28179;-56
2023/03/05 10:02:32;;;;;;;2.20;2.00;;;;;;;19.80;31.06;99097.14;1850467;76;28559;-55
2023/03/05 10:05:26;;;;;;;2.00;1.90;;;;;;;19.78;31.04;99098.43;1868739;76;28135;-56
2023/03/05 10:08:17;;;;;;;2.30;2.10;;;;;;;19.79;31.08;99094.11;1848012;76;28195;-55
2023/03/05 10:11:08;;;;;;;2.52;2.33;;;;;;;19.82;31.07;99091.46;1848028;76;28288;-56
2023/03/05 10:13:56;;;;;;;2.27;2.10;;;;;;;19.84;31.00;99086.61;1853050;76;28211;-56
2023/03/05 10:17:13;;;;;;;2.15;1.95;;;;;;;19.84;30.99;99079.27;1847797;76;38505;-56
2023/03/05 10:20:14;;;;;;;2.05;1.95;;;;;;;19.84;30.97;99077.08;1847996;76;28144;-54
2023/03/05 10:23:14;;;;;;;1.92;1.82;;;;;;;19.80;31.05;99063.60;1847672;76;28180;-53
2023/03/05 10:26:14;;;;;;;2.02;1.92;;;;;;;19.78;31.08;99065.20;1864214;76;28330;-55
2023/03/05 10:29:14;;;;;;;2.22;2.10;;;;;;;19.80;31.06;99071.25;1864216;75;28299;-58
2023/03/05 10:32:22;;;;;;;2.02;1.92;;;;;;;19.82;31.04;99053.30;1812230;78;28681;-57
2023/03/05 10:35:20;;;;;;;2.10;1.98;;;;;;;19.81;31.04;99048.94;1805188;78;28327;-59
2023/03/05 10:38:28;;;;;;;2.40;2.20;;;;;;;19.79;31.04;99045.61;1809553;78;28354;-57
2023/03/05 10:41:35;;;;;;;1.92;1.82;;;;;;;19.77;31.07;99039.00;1813270;78;28437;-57
2023/03/05 10:44:35;;;;;;;2.52;2.15;;;;;;;19.78;31.10;99036.59;1811435;78;28433;-55
2023/03/05 10:47:35;;;;;;;2.02;1.87;;;;;;;19.77;31.08;99034.91;1810718;78;28285;-55
2023/03/05 10:50:30;;;;;;;2.15;2.05;;;;;;;19.77;31.09;99027.26;1810799;78;28289;-55
2023/03/05 10:53:21;;;;;;;2.30;2.10;;;;;;;19.78;31.10;99026.21;1829992;78;28396;-53
2023/03/05 10:56:12;;;;;;;2.08;1.98;;;;;;;19.79;31.08;99028.70;1816562;78;28446;-57
2023/03/05 10:59:00;;;;;;;2.27;2.08;;;;;;;19.81;31.05;99020.31;1811073;78;28288;-56
2023/03/05 11:01:51;;;;;;;2.42;2.22;;;;;;;19.81;31.04;99017.59;1811007;78;28284;-56
2023/03/05 11:04:41;;;;;;;2.02;1.92;;;;;;;19.81;31.01;99012.14;1810689;78;28394;-56
2023/03/05 11:07:32;;;;;;;2.15;1.90;;;;;;;19.82;31.03;99009.70;1814754;78;28413;-56
2023/03/05 11:10:20;;;;;;;2.45;2.25;;;;;;;19.80;31.03;99000.40;1811373;78;28332;-55
2023/03/05 11:13:24;;;;;;;2.50;2.30;;;;;;;19.83;31.01;98996.39;1810886;78;28272;-56
2023/03/05 11:16:24;;;;;;;2.17;2.00;;;;;;;19.80;31.02;98990.86;1810731;78;28743;-56
2023/03/05 11:19:21;;;;;;;1.90;1.80;;;;;;;19.73;31.04;98971.56;1810501;78;28442;-55
2023/03/05 11:22:19;;;;;;;2.00;1.90;;;;;;;19.81;31.02;98979.44;1814085;78;28518;-58
2023/03/05 11:25:20;;;;;;;1.90;1.80;;;;;;;19.81;31.04;98972.63;1809731;78;28280;-54
2023/03/05 11:28:08;;;;;;;2.33;2.12;;;;;;;19.79;31.06;98966.02;1863128;75;28132;-55
2023/03/05 11:30:59;;;;;;;2.10;2.00;;;;;;;19.78;31.05;98960.81;1851273;75;28141;-55
2023/03/05 11:33:59;;;;;;;3.50;1.95;;;;;;;19.80;31.03;98954.07;1868576;76;28126;-57
2023/03/05 11:36:57;;;;;;;2.33;2.12;;;;;;;19.81;31.05;98949.45;1855325;76;28191;-58
2023/03/05 11:39:46;;;;;;;1.95;1.85;;;;;;;19.80;31.04;98945.05;1837312;77;28763;-54
2023/03/05 11:42:35;;;;;;;2.10;2.00;;;;;;;19.82;31.00;98940.20;1846508;77;28242;-54
2023/03/05 11:45:25;;;;;;;2.10;2.00;;;;;;;19.79;31.04;98936.04;1846875;77;28190;-55
2023/03/05 11:48:22;;;;;;;2.10;2.00;;;;;;;19.80;31.03;98929.55;1844664;76;28481;-55
2023/03/05 11:51:20;;;;;;;2.25;2.15;;;;;;;19.82;31.03;98925.22;1841393;77;28298;-56
2023/03/05 11:54:11;;;;;;;2.47;2.27;;;;;;;19.82;31.02;98921.13;1825805;78;28314;-56
2023/03/05 11:57:01;;;;;;;2.33;2.12;;;;;;;19.79;31.03;98918.88;1859155;76;28218;-57
2023/03/05 11:59:52;;;;;;;3.00;2.52;;;;;;;19.79;31.02;98914.24;1859445;76;28164;-55
2023/03/05 12:02:40;;;;;;;2.40;2.20;;;;;;;19.79;31.01;98914.24;1839829;77;28199;-54
2023/03/05 12:05:31;;;;;;;2.40;2.05;;;;;;;19.79;31.01;98911.52;1849639;76;28235;-56
2023/03/05 12:08:24;;;;;;;2.33;2.22;;;;;;;19.79;31.01;98902.53;1847425;76;28248;-53
2023/03/05 12:11:22;;;;;;;2.42;2.22;;;;;;;19.82;31.00;98896.59;1868584;76;28238;-55
2023/03/05 12:14:26;;;;;;;2.27;1.90;;;;;;;19.80;30.99;98893.28;1837250;77;28401;-52
2023/03/05 12:17:20;;;;;;;2.27;2.08;;;;;;;19.79;30.98;98888.35;1839249;77;28341;-56
2023/03/05 12:20:14;;;;;;;2.50;2.30;;;;;;;19.77;31.05;98878.22;1850611;76;28114;-58
2023/03/05 12:23:02;;;;;;;2.37;2.20;;;;;;;19.79;30.99;98873.92;1835980;77;28121;-57
2023/03/05 12:25:56;;;;;;;2.45;2.25;;;;;;;19.80;30.99;98870.11;1847506;76;28320;-58
2023/03/05 12:28:49;;;;;;;2.40;2.20;;;;;;;19.80;31.00;98855.97;1837334;77;28257;-56
2023/03/05 12:31:41;;;;;;;2.37;2.17;;;;;;;19.79;30.99;98849.39;1825981;77;28267;-57
2023/03/05 12:34:40;;;;;;;3.17;2.30;;;;;;;19.81;30.95;98841.81;1847807;76;28117;-56
2023/03/05 12:37:32;;;;;;;3.22;2.40;;;;;;;19.83;30.91;98834.23;1847642;76;28309;-56
2023/03/05 12:40:26;;;;;;;2.00;1.90;;;;;;;19.80;30.97;98834.16;1847488;76;28196;-54
2023/03/05 12:43:32;;;;;;;2.10;1.90;;;;;;;19.81;30.92;98828.19;1838322;77;28199;-56
2023/03/05 12:46:31;;;;;;;2.47;2.27;;;;;;;19.81;30.92;98824.09;1854457;76;28117;-57
2023/03/05 12:49:25;;;;;;;2.17;2.08;;;;;;;19.79;30.98;98818.86;1851052;76;28250;-57
2023/03/05 12:52:24;;;;;;;2.20;2.08;;;;;;;19.80;30.97;98815.08;1847746;76;28125;-56
2023/03/05 12:55:25;;;;;;;1.95;1.85;;;;;;;19.80;30.93;98804.19;1847238;77;28171;-57
2023/03/05 12:58:25;;;;;;;2.52;2.33;;;;;;;19.79;30.99;98797.06;1836109;77;28290;-53
2023/03/05 13:01:20;;;;;;;2.50;2.30;;;;;;;19.79;30.98;98791.61;1837681;77;28247;-55
2023/03/05 13:04:19;;;;;;;1.93;1.83;;;;;;;19.79;30.97;98788.08;1837605;77;28191;-55
2023/03/05 13:07:16;;;;;;;2.30;2.10;;;;;;;19.78;30.97;98779.06;1837482;77;28238;-56
2023/03/05 13:10:05;;;;;;;2.63;2.43;;;;;;;19.80;30.96;98770.65;1858521;76;28220;-56
2023/03/05 13:12:57;;;;;;;2.12;2.00;;;;;;;19.80;30.98;98766.03;1858771;76;28164;-54
2023/03/05 13:15:48;;;;;;;2.20;2.10;;;;;;;19.81;30.97;98758.14;1826088;77;28247;-58
2023/03/05 13:18:39;;;;;;;2.10;1.90;;;;;;;19.84;30.94;98756.84;1837902;77;28121;-56
2023/03/05 13:21:30;;;;;;;2.40;2.20;;;;;;;19.83;30.90;98754.67;1836157;77;28219;-56
2023/03/05 13:24:20;;;;;;;2.45;2.25;;;;;;;19.84;30.92;98745.94;1835960;77;28195;-56